Time,TemperatureF,DewpointF,PressureIn,WindDirection,WindDirectionDegrees,WindSpeedMPH,WindSpeedGustMPH,Humidity,HourlyPrecipIn,Conditions,Clouds,dailyrainin,SoftwareType,DateUTC
2014-11-28 00:00:00,57.5,49.3,30.11,NNW,345,5.0,5.0,74,0.00,,---,0.00,VWS V14.01,2014-11-28 05:00:00,
2014-11-28 00:01:00,57.5,49.7,30.11,NNW,345,4.0,5.0,75,0.00,,---,0.00,VWS V14.01,2014-11-28 05:01:00,
2014-11-28 00:02:00,57.5,49.7,30.11,NNW,345,1.0,5.0,75,0.00,,---,0.00,VWS V14.01,2014-11-28 05:02:00,
2014-11-28 00:03:00,57.6,49.4,30.11,NNW,344,2.0,9.0,74,0.00,,---,0.00,VWS V14.01,2014-11-28 05:03:00,
2014-11-28 00:04:00,57.3,49.5,30.11,NNW,345,3.0,5.0,75,0.00,,---,0.00,VWS V14.01,2014-11-28 05:04:00,
2014-11-28 00:05:00,57.3,49.5,30.11,NNW,345,1.0,5.0,75,0.00,,---,0.00,VWS V14.01,2014-11-28 05:05:00,
2014-11-28 00:06:00,57.3,49.5,30.11,NNW,345,2.0,5.0,75,0.00,,---,0.00,VWS V14.01,2014-11-28 05:06:00,
2014-11-28 00:07:00,57.2,49.4,30.11,NNW,345,2.0,5.0,75,0.00,,---,0.00,VWS V14.01,2014-11-28 05:07:00,
2014-11-28 00:08:00,57.5,49.3,30.11,NNW,345,2.0,11.0,74,0.00,,---,0.00,VWS V14.01,2014-11-28 05:08:00,
2014-11-28 00:09:00,57.2,49.4,30.11,NNW,345,2.0,5.0,75,0.00,,---,0.00,VWS V14.01,2014-11-28 05:09:00,
2014-11-28 00:10:00,57.2,49.4,30.11,NNW,345,3.0,5.0,75,0.00,,---,0.00,VWS V14.01,2014-11-28 05:10:00,
2014-11-28 00:11:00,57.2,49.4,30.11,NNW,345,2.0,5.0,75,0.00,,---,0.00,VWS V14.01,2014-11-28 05:11:00,
2014-11-28 00:12:00,57.2,49.4,30.11,NNW,345,3.0,5.0,75,0.00,,---,0.00,VWS V14.01,2014-11-28 05:12:00,
2014-11-28 00:13:00,57.3,49.5,30.11,NNW,345,2.0,5.0,75,0.00,,---,0.00,VWS V14.01,2014-11-28 05:13:00,
2014-11-28 00:14:00,57.0,49.2,30.11,NNW,345,1.0,5.0,75,0.00,,---,0.00,VWS V14.01,2014-11-28 05:14:00,
2014-11-28 00:15:00,57.0,49.2,30.11,NNW,345,1.0,5.0,75,0.00,,---,0.00,VWS V14.01,2014-11-28 05:15:00,
2014-11-28 00:16:00,57.0,49.2,30.11,NNW,345,1.0,5.0,75,0.00,,---,0.00,VWS V14.01,2014-11-28 05:16:00,
2014-11-28 00:17:00,56.9,49.1,30.11,NNW,345,1.0,5.0,75,0.00,,---,0.00,VWS V14.01,2014-11-28 05:17:00,
2014-11-28 00:18:00,57.2,49.4,30.11,NNW,345,3.0,5.0,75,0.00,,---,0.00,VWS V14.01,2014-11-28 05:18:00,
2014-11-28 00:19:00,56.9,49.1,30.11,NNW,345,6.0,6.0,75,0.00,,---,0.00,VWS V14.01,2014-11-28 05:19:00,
2014-11-28 00:20:00,56.9,49.1,30.11,NNW,346,2.0,6.0,75,0.00,,---,0.00,VWS V14.01,2014-11-28 05:20:00,
2014-11-28 00:21:00,56.7,48.9,30.11,NNW,346,0.0,6.0,75,0.00,,---,0.00,VWS V14.01,2014-11-28 05:21:00,
2014-11-28 00:22:00,56.7,48.9,30.11,NNW,346,5.0,6.0,75,0.00,,---,0.00,VWS V14.01,2014-11-28 05:22:00,
2014-11-28 00:23:00,57.0,49.2,30.11,NNW,345,2.0,5.0,75,0.00,,---,0.00,VWS V14.01,2014-11-28 05:23:00,
2014-11-28 00:24:00,56.7,48.5,30.11,NNW,346,1.0,6.0,74,0.00,,---,0.00,VWS V14.01,2014-11-28 05:24:00,
2014-11-28 00:25:00,56.7,48.5,30.11,NNW,346,4.0,6.0,74,0.00,,---,0.00,VWS V14.01,2014-11-28 05:25:00,
2014-11-28 00:26:00,56.6,48.4,30.11,NNW,346,2.0,6.0,74,0.00,,---,0.00,VWS V14.01,2014-11-28 05:26:00,
2014-11-28 00:27:00,56.6,48.4,30.11,NNW,346,4.0,6.0,74,0.00,,---,0.00,VWS V14.01,2014-11-28 05:27:00,
2014-11-28 00:28:00,56.9,49.1,30.11,NNW,345,4.0,5.0,75,0.00,,---,0.00,VWS V14.01,2014-11-28 05:28:00,
2014-11-28 00:29:00,56.6,48.4,30.11,NNW,346,4.0,6.0,74,0.00,,---,0.00,VWS V14.01,2014-11-28 05:29:00,
2014-11-28 00:30:00,56.6,48.4,30.11,NNW,346,2.0,2.0,74,0.00,,---,0.00,VWS V14.01,2014-11-28 05:30:00,
2014-11-28 00:33:00,56.7,48.5,30.11,NNW,346,3.0,6.0,74,0.00,,---,0.00,VWS V14.01,2014-11-28 05:33:00,
2014-11-28 00:37:00,56.5,48.3,30.11,NNW,346,1.0,6.0,74,0.00,,---,0.00,VWS V14.01,2014-11-28 05:37:00,
2014-11-28 00:38:00,56.6,48.4,30.11,NNW,346,4.0,6.0,74,0.00,,---,0.00,VWS V14.01,2014-11-28 05:38:00,
2014-11-28 00:39:00,56.3,48.1,30.11,NNW,346,5.0,7.0,74,0.00,,---,0.00,VWS V14.01,2014-11-28 05:39:00,
2014-11-28 00:40:00,56.3,48.1,30.11,NNW,346,2.0,7.0,74,0.00,,---,0.00,VWS V14.01,2014-11-28 05:40:00,
2014-11-28 00:41:00,56.3,48.1,30.11,NNW,344,2.0,7.0,74,0.00,,---,0.00,VWS V14.01,2014-11-28 05:41:00,
2014-11-28 00:42:00,56.3,47.8,30.11,NNW,348,11.0,11.0,73,0.00,,---,0.00,VWS V14.01,2014-11-28 05:42:00,
2014-11-28 00:43:00,56.5,48.3,30.11,NNW,346,4.0,6.0,74,0.00,,---,0.00,VWS V14.01,2014-11-28 05:43:00,
2014-11-28 00:44:00,56.3,47.8,30.11,NNW,341,6.0,11.0,73,0.00,,---,0.00,VWS V14.01,2014-11-28 05:44:00,
2014-11-28 00:45:00,56.3,47.8,30.11,NNW,340,4.0,11.0,73,0.00,,---,0.00,VWS V14.01,2014-11-28 05:45:00,
2014-11-28 00:46:00,56.3,47.8,30.11,NNW,340,4.0,11.0,73,0.00,,---,0.00,VWS V14.01,2014-11-28 05:46:00,
2014-11-28 00:47:00,56.3,47.8,30.11,NNW,340,3.0,11.0,73,0.00,,---,0.00,VWS V14.01,2014-11-28 05:47:00,
2014-11-28 00:48:00,56.3,47.8,30.11,NNW,332,4.0,11.0,73,0.00,,---,0.00,VWS V14.01,2014-11-28 05:48:00,
2014-11-28 00:49:00,56.3,48.1,30.11,NNW,346,4.0,7.0,74,0.00,,---,0.00,VWS V14.01,2014-11-28 05:49:00,
2014-11-28 00:50:00,56.3,47.4,30.11,NNW,339,3.0,11.0,72,0.00,,---,0.00,VWS V14.01,2014-11-28 05:50:00,
2014-11-28 00:51:00,56.2,47.3,30.11,NNW,339,2.0,11.0,72,0.00,,---,0.00,VWS V14.01,2014-11-28 05:51:00,
2014-11-28 00:52:00,56.2,47.3,30.11,NNW,339,4.0,11.0,72,0.00,,---,0.00,VWS V14.01,2014-11-28 05:52:00,
2014-11-28 00:53:00,56.2,47.3,30.11,NNW,340,5.0,11.0,72,0.00,,---,0.00,VWS V14.01,2014-11-28 05:53:00,
2014-11-28 00:54:00,56.3,47.8,30.11,NNW,342,10.0,11.0,73,0.00,,---,0.00,VWS V14.01,2014-11-28 05:54:00,
2014-11-28 00:55:00,56.2,47.3,30.11,NNW,340,2.0,11.0,72,0.00,,---,0.00,VWS V14.01,2014-11-28 05:55:00,
2014-11-28 00:56:00,56.2,47.3,30.11,NNW,340,2.0,11.0,72,0.00,,---,0.00,VWS V14.01,2014-11-28 05:56:00,
2014-11-28 00:57:00,56.2,47.3,30.11,NNW,340,5.0,11.0,72,0.00,,---,0.00,VWS V14.01,2014-11-28 05:57:00,
2014-11-28 00:58:00,56.2,47.3,30.11,NNW,341,1.0,11.0,72,0.00,,---,0.00,VWS V14.01,2014-11-28 05:58:00,
2014-11-28 00:59:00,56.3,47.8,30.11,NNW,336,6.0,11.0,73,0.00,,---,0.00,VWS V14.01,2014-11-28 05:59:00,
2014-11-28 01:00:00,56.2,47.3,30.11,NNW,342,6.0,6.0,72,0.00,,---,0.00,VWS V14.01,2014-11-28 06:00:00,
2014-11-28 01:01:00,56.2,47.3,30.11,NNW,342,1.0,6.0,72,0.00,,---,0.00,VWS V14.01,2014-11-28 06:01:00,
2014-11-28 01:02:00,56.2,47.3,30.11,NNW,341,2.0,6.0,72,0.00,,---,0.00,VWS V14.01,2014-11-28 06:02:00,
2014-11-28 01:03:00,56.2,47.3,30.11,NNW,341,2.0,6.0,72,0.00,,---,0.00,VWS V14.01,2014-11-28 06:03:00,
2014-11-28 01:04:00,56.2,47.3,30.11,NNW,340,6.0,11.0,72,0.00,,---,0.00,VWS V14.01,2014-11-28 06:04:00,
2014-11-28 01:07:00,56.2,47.3,30.11,NNW,341,5.0,6.0,72,0.00,,---,0.00,VWS V14.01,2014-11-28 06:07:00,
2014-11-28 01:08:00,56.2,47.3,30.11,NNW,342,11.0,11.0,72,0.00,,---,0.00,VWS V14.01,2014-11-28 06:08:00,
2014-11-28 01:09:00,56.2,47.3,30.11,NNW,341,4.0,11.0,72,0.00,,---,0.00,VWS V14.01,2014-11-28 06:09:00,
2014-11-28 01:14:00,56.2,47.3,30.11,NNW,341,3.0,6.0,72,0.00,,---,0.00,VWS V14.01,2014-11-28 06:14:00,
2014-11-28 01:15:00,56.0,46.7,30.11,NNW,342,3.0,13.0,71,0.00,,---,0.00,VWS V14.01,2014-11-28 06:15:00,
2014-11-28 01:16:00,56.0,46.7,30.11,NNW,342,4.0,13.0,71,0.00,,---,0.00,VWS V14.01,2014-11-28 06:16:00,
2014-11-28 01:17:00,56.0,46.7,30.11,NNW,342,3.0,13.0,71,0.00,,---,0.00,VWS V14.01,2014-11-28 06:17:00,
2014-11-28 01:18:00,56.0,47.1,30.11,NNW,345,9.0,13.0,72,0.00,,---,0.00,VWS V14.01,2014-11-28 06:18:00,
2014-11-28 01:19:00,56.2,46.9,30.11,NNW,344,5.0,13.0,71,0.00,,---,0.00,VWS V14.01,2014-11-28 06:19:00,
2014-11-28 01:20:00,56.0,46.7,30.11,NNW,343,4.0,13.0,71,0.00,,---,0.00,VWS V14.01,2014-11-28 06:20:00,
2014-11-28 01:21:00,56.0,47.1,30.11,NNW,342,3.0,13.0,72,0.00,,---,0.00,VWS V14.01,2014-11-28 06:21:00,
2014-11-28 01:22:00,56.0,47.1,30.11,NNW,342,3.0,13.0,72,0.00,,---,0.00,VWS V14.01,2014-11-28 06:22:00,
2014-11-28 01:23:00,56.0,47.1,30.11,NNW,342,2.0,13.0,72,0.00,,---,0.00,VWS V14.01,2014-11-28 06:23:00,
2014-11-28 01:24:00,56.0,47.1,30.11,NNW,342,2.0,13.0,72,0.00,,---,0.00,VWS V14.01,2014-11-28 06:24:00,
2014-11-28 01:25:00,56.0,46.7,30.11,NNW,342,3.0,13.0,71,0.00,,---,0.00,VWS V14.01,2014-11-28 06:25:00,
2014-11-28 01:26:00,55.9,47.0,30.11,NNW,343,2.0,13.0,72,0.00,,---,0.00,VWS V14.01,2014-11-28 06:26:00,
2014-11-28 01:27:00,55.9,47.0,30.11,NNW,343,3.0,13.0,72,0.00,,---,0.00,VWS V14.01,2014-11-28 06:27:00,
2014-11-28 01:28:00,55.9,47.0,30.11,NNW,343,1.0,13.0,72,0.00,,---,0.00,VWS V14.01,2014-11-28 06:28:00,
2014-11-28 01:29:00,55.9,47.0,30.10,NNW,343,3.0,13.0,72,0.00,,---,0.00,VWS V14.01,2014-11-28 06:29:00,
2014-11-28 01:30:00,56.0,47.1,30.11,NNW,343,4.0,13.0,72,0.00,,---,0.00,VWS V14.01,2014-11-28 06:30:00,
2014-11-28 01:31:00,55.9,47.0,30.10,NNW,338,7.0,10.0,72,0.00,,---,0.00,VWS V14.01,2014-11-28 06:31:00,
2014-11-28 01:32:00,55.9,47.0,30.10,NNW,336,2.0,10.0,72,0.00,,---,0.00,VWS V14.01,2014-11-28 06:32:00,
2014-11-28 01:33:00,55.9,47.0,30.10,NNW,338,8.0,10.0,72,0.00,,---,0.00,VWS V14.01,2014-11-28 06:33:00,
2014-11-28 01:34:00,55.9,47.0,30.10,NNW,339,3.0,10.0,72,0.00,,---,0.00,VWS V14.01,2014-11-28 06:34:00,
2014-11-28 01:35:00,56.0,47.1,30.11,NNW,343,5.0,13.0,72,0.00,,---,0.00,VWS V14.01,2014-11-28 06:35:00,
2014-11-28 01:36:00,55.9,47.0,30.10,NNW,344,7.0,10.0,72,0.00,,---,0.00,VWS V14.01,2014-11-28 06:36:00,
2014-11-28 01:37:00,55.7,46.8,30.10,NNW,342,9.0,10.0,72,0.00,,---,0.00,VWS V14.01,2014-11-28 06:37:00,
2014-11-28 01:38:00,55.7,46.8,30.10,NNW,340,4.0,10.0,72,0.00,,---,0.00,VWS V14.01,2014-11-28 06:38:00,
2014-11-28 01:39:00,55.7,46.8,30.10,NNW,336,3.0,11.0,72,0.00,,---,0.00,VWS V14.01,2014-11-28 06:39:00,
2014-11-28 01:40:00,55.9,47.0,30.10,NNW,347,2.0,10.0,72,0.00,,---,0.00,VWS V14.01,2014-11-28 06:40:00,
2014-11-28 01:41:00,55.7,46.8,30.10,NNW,335,5.0,11.0,72,0.00,,---,0.00,VWS V14.01,2014-11-28 06:41:00,
2014-11-28 01:42:00,55.7,46.8,30.10,NNW,337,6.0,11.0,72,0.00,,---,0.00,VWS V14.01,2014-11-28 06:42:00,
2014-11-28 01:43:00,55.7,46.8,30.10,NNW,334,2.0,11.0,72,0.00,,---,0.00,VWS V14.01,2014-11-28 06:43:00,
2014-11-28 01:44:00,55.7,46.8,30.10,NNW,340,5.0,11.0,72,0.00,,---,0.00,VWS V14.01,2014-11-28 06:44:00,
2014-11-28 01:45:00,55.9,47.0,30.10,NNW,343,2.0,10.0,72,0.00,,---,0.00,VWS V14.01,2014-11-28 06:45:00,
2014-11-28 01:46:00,55.7,46.8,30.10,NNW,341,7.0,11.0,72,0.00,,---,0.00,VWS V14.01,2014-11-28 06:46:00,
2014-11-28 01:47:00,55.7,46.8,30.10,NNW,331,3.0,11.0,72,0.00,,---,0.00,VWS V14.01,2014-11-28 06:47:00,
2014-11-28 01:48:00,55.7,46.8,30.10,NNW,347,11.0,11.0,72,0.00,,---,0.00,VWS V14.01,2014-11-28 06:48:00,
2014-11-28 01:49:00,55.7,46.8,30.10,NNW,341,4.0,11.0,72,0.00,,---,0.00,VWS V14.01,2014-11-28 06:49:00,
2014-11-28 01:50:00,55.7,46.8,30.10,NNW,334,7.0,11.0,72,0.00,,---,0.00,VWS V14.01,2014-11-28 06:50:00,
2014-11-28 01:51:00,55.6,46.7,30.10,NNW,327,6.0,11.0,72,0.00,,---,0.00,VWS V14.01,2014-11-28 06:51:00,
2014-11-28 01:52:00,55.6,46.7,30.10,NNW,328,6.0,11.0,72,0.00,,---,0.00,VWS V14.01,2014-11-28 06:52:00,
2014-11-28 01:53:00,55.6,46.7,30.10,North,355,13.0,13.0,72,0.00,,---,0.00,VWS V14.01,2014-11-28 06:53:00,
2014-11-28 01:55:00,55.7,46.8,30.10,NNW,341,2.0,11.0,72,0.00,,---,0.00,VWS V14.01,2014-11-28 06:55:00,
2014-11-28 01:57:00,55.6,46.7,30.10,NNW,345,4.0,13.0,72,0.00,,---,0.00,VWS V14.01,2014-11-28 06:57:00,
2014-11-28 01:59:00,55.6,46.7,30.10,North,349,4.0,13.0,72,0.00,,---,0.00,VWS V14.01,2014-11-28 06:59:00,
2014-11-28 02:00:00,55.6,46.7,30.10,NW,325,3.0,11.0,72,0.00,,---,0.00,VWS V14.01,2014-11-28 07:00:00,
2014-11-28 02:04:00,55.4,46.5,30.10,NNW,342,4.0,9.0,72,0.00,,---,0.00,VWS V14.01,2014-11-28 07:04:00,
2014-11-28 02:05:00,55.6,46.7,30.10,NNW,345,6.0,13.0,72,0.00,,---,0.00,VWS V14.01,2014-11-28 07:05:00,
2014-11-28 02:06:00,55.4,46.5,30.10,NNW,344,4.0,9.0,72,0.00,,---,0.00,VWS V14.01,2014-11-28 07:06:00,
2014-11-28 02:07:00,55.4,46.5,30.10,NNW,341,6.0,9.0,72,0.00,,---,0.00,VWS V14.01,2014-11-28 07:07:00,
2014-11-28 02:08:00,55.4,46.5,30.10,North,355,13.0,13.0,72,0.00,,---,0.00,VWS V14.01,2014-11-28 07:08:00,
2014-11-28 02:09:00,55.3,46.4,30.10,NNW,335,6.0,13.0,72,0.00,,---,0.00,VWS V14.01,2014-11-28 07:09:00,
2014-11-28 02:10:00,55.6,46.7,30.10,NNW,343,7.0,7.0,72,0.00,,---,0.00,VWS V14.01,2014-11-28 07:10:00,
2014-11-28 02:11:00,55.3,46.4,30.10,NNW,341,7.0,13.0,72,0.00,,---,0.00,VWS V14.01,2014-11-28 07:11:00,
2014-11-28 02:12:00,55.3,46.4,30.10,NNW,340,4.0,13.0,72,0.00,,---,0.00,VWS V14.01,2014-11-28 07:12:00,
2014-11-28 02:13:00,55.3,46.4,30.10,NNW,341,4.0,13.0,72,0.00,,---,0.00,VWS V14.01,2014-11-28 07:13:00,
2014-11-28 02:14:00,55.3,46.4,30.09,NNW,329,3.0,13.0,72,0.00,,---,0.00,VWS V14.01,2014-11-28 07:14:00,
2014-11-28 02:15:00,55.1,46.2,30.09,NNW,330,1.0,13.0,72,0.00,,---,0.00,VWS V14.01,2014-11-28 07:15:00,
2014-11-28 02:16:00,55.4,46.5,30.10,NNW,344,2.0,9.0,72,0.00,,---,0.00,VWS V14.01,2014-11-28 07:16:00,
2014-11-28 02:17:00,55.1,46.2,30.09,NNW,344,6.0,13.0,72,0.00,,---,0.00,VWS V14.01,2014-11-28 07:17:00,
2014-11-28 02:18:00,55.1,46.2,30.09,NNW,344,4.0,13.0,72,0.00,,---,0.00,VWS V14.01,2014-11-28 07:18:00,
2014-11-28 02:19:00,55.1,46.2,30.09,NNW,343,3.0,13.0,72,0.00,,---,0.00,VWS V14.01,2014-11-28 07:19:00,
2014-11-28 02:20:00,55.1,46.2,30.09,NNW,343,3.0,13.0,72,0.00,,---,0.00,VWS V14.01,2014-11-28 07:20:00,
2014-11-28 02:21:00,55.3,46.4,30.10,NNW,340,7.0,13.0,72,0.00,,---,0.00,VWS V14.01,2014-11-28 07:21:00,
2014-11-28 02:22:00,55.1,46.2,30.09,NNW,339,4.0,13.0,72,0.00,,---,0.00,VWS V14.01,2014-11-28 07:22:00,
2014-11-28 02:23:00,55.0,46.2,30.09,NNW,340,5.0,13.0,72,0.00,,---,0.00,VWS V14.01,2014-11-28 07:23:00,
2014-11-28 02:24:00,55.0,46.2,30.09,NNW,340,6.0,13.0,72,0.00,,---,0.00,VWS V14.01,2014-11-28 07:24:00,
2014-11-28 02:25:00,55.0,46.2,30.09,NNW,340,3.0,13.0,72,0.00,,---,0.00,VWS V14.01,2014-11-28 07:25:00,
2014-11-28 02:26:00,55.1,46.6,30.09,NNW,343,5.0,13.0,73,0.00,,---,0.00,VWS V14.01,2014-11-28 07:26:00,
2014-11-28 02:27:00,55.0,46.5,30.09,NNW,327,6.0,13.0,73,0.00,,---,0.00,VWS V14.01,2014-11-28 07:27:00,
2014-11-28 02:28:00,55.0,46.5,30.09,NNW,329,1.0,13.0,73,0.00,,---,0.00,VWS V14.01,2014-11-28 07:28:00,
2014-11-28 02:29:00,55.0,46.2,30.09,NNW,329,3.0,13.0,72,0.00,,---,0.00,VWS V14.01,2014-11-28 07:29:00,
2014-11-28 02:30:00,55.0,46.5,30.09,NW,323,6.0,8.0,73,0.00,,---,0.00,VWS V14.01,2014-11-28 07:30:00,
2014-11-28 02:31:00,55.1,46.2,30.09,NNW,336,6.0,13.0,72,0.00,,---,0.00,VWS V14.01,2014-11-28 07:31:00,
2014-11-28 02:32:00,54.8,46.3,30.09,NNW,339,6.0,8.0,73,0.00,,---,0.00,VWS V14.01,2014-11-28 07:32:00,
2014-11-28 02:33:00,54.8,46.3,30.09,NNW,340,1.0,8.0,73,0.00,,---,0.00,VWS V14.01,2014-11-28 07:33:00,
2014-11-28 02:34:00,54.8,46.3,30.09,NNW,340,4.0,8.0,73,0.00,,---,0.00,VWS V14.01,2014-11-28 07:34:00,
2014-11-28 02:35:00,54.8,46.3,30.09,NNW,341,4.0,12.0,73,0.00,,---,0.00,VWS V14.01,2014-11-28 07:35:00,
2014-11-28 02:36:00,55.0,46.5,30.09,NNW,327,6.0,13.0,73,0.00,,---,0.00,VWS V14.01,2014-11-28 07:36:00,
2014-11-28 02:37:00,54.8,46.3,30.09,NNW,333,4.0,12.0,73,0.00,,---,0.00,VWS V14.01,2014-11-28 07:37:00,
2014-11-28 02:38:00,54.8,46.3,30.09,NNW,340,7.0,12.0,73,0.00,,---,0.00,VWS V14.01,2014-11-28 07:38:00,
2014-11-28 02:39:00,54.8,46.3,30.09,NNW,340,6.0,12.0,73,0.00,,---,0.00,VWS V14.01,2014-11-28 07:39:00,
2014-11-28 02:40:00,54.8,46.3,30.09,NNW,347,6.0,12.0,73,0.00,,---,0.00,VWS V14.01,2014-11-28 07:40:00,
2014-11-28 02:41:00,55.0,46.5,30.09,NNW,339,3.0,8.0,73,0.00,,---,0.00,VWS V14.01,2014-11-28 07:41:00,
2014-11-28 02:42:00,54.8,46.3,30.09,NNW,337,3.0,12.0,73,0.00,,---,0.00,VWS V14.01,2014-11-28 07:42:00,
2014-11-28 02:43:00,54.8,46.3,30.09,NNW,337,4.0,12.0,73,0.00,,---,0.00,VWS V14.01,2014-11-28 07:43:00,
2014-11-28 02:44:00,54.7,46.2,30.09,NNW,338,6.0,12.0,73,0.00,,---,0.00,VWS V14.01,2014-11-28 07:44:00,
2014-11-28 02:45:00,54.7,46.2,30.09,NNW,340,4.0,12.0,73,0.00,,---,0.00,VWS V14.01,2014-11-28 07:45:00,
2014-11-28 02:46:00,54.8,46.3,30.09,NNW,342,4.0,12.0,73,0.00,,---,0.00,VWS V14.01,2014-11-28 07:46:00,
2014-11-28 02:47:00,54.7,46.2,30.09,NNW,331,6.0,12.0,73,0.00,,---,0.00,VWS V14.01,2014-11-28 07:47:00,
2014-11-28 02:48:00,54.7,46.2,30.09,NNW,333,3.0,12.0,73,0.00,,---,0.00,VWS V14.01,2014-11-28 07:48:00,
2014-11-28 02:49:00,54.7,46.2,30.09,NNW,334,6.0,12.0,73,0.00,,---,0.00,VWS V14.01,2014-11-28 07:49:00,
2014-11-28 02:50:00,54.7,46.2,30.09,NNW,334,2.0,12.0,73,0.00,,---,0.00,VWS V14.01,2014-11-28 07:50:00,
2014-11-28 02:51:00,54.8,46.3,30.09,NNW,335,4.0,12.0,73,0.00,,---,0.00,VWS V14.01,2014-11-28 07:51:00,
2014-11-28 02:52:00,54.7,46.2,30.09,NNW,338,4.0,12.0,73,0.00,,---,0.00,VWS V14.01,2014-11-28 07:52:00,
2014-11-28 02:56:00,54.7,46.2,30.09,NNW,340,5.0,12.0,73,0.00,,---,0.00,VWS V14.01,2014-11-28 07:56:00,
2014-11-28 03:01:00,54.7,46.2,30.09,NNW,331,2.0,12.0,73,0.00,,---,0.00,VWS V14.01,2014-11-28 08:01:00,
2014-11-28 03:02:00,54.5,46.4,30.09,NW,326,4.0,9.0,74,0.00,,---,0.00,VWS V14.01,2014-11-28 08:02:00,
2014-11-28 03:03:00,54.5,46.0,30.09,NNW,332,10.0,10.0,73,0.00,,---,0.00,VWS V14.01,2014-11-28 08:03:00,
2014-11-28 03:04:00,54.5,46.4,30.09,NNW,336,5.0,10.0,74,0.00,,---,0.00,VWS V14.01,2014-11-28 08:04:00,
2014-11-28 03:05:00,54.5,46.4,30.09,NNW,337,6.0,10.0,74,0.00,,---,0.00,VWS V14.01,2014-11-28 08:05:00,
2014-11-28 03:06:00,54.5,46.0,30.09,NNW,340,3.0,12.0,73,0.00,,---,0.00,VWS V14.01,2014-11-28 08:06:00,
2014-11-28 03:07:00,54.5,46.4,30.09,NNW,342,4.0,11.0,74,0.00,,---,0.00,VWS V14.01,2014-11-28 08:07:00,
2014-11-28 03:08:00,54.4,46.3,30.09,NNW,343,2.0,11.0,74,0.00,,---,0.00,VWS V14.01,2014-11-28 08:08:00,
2014-11-28 03:09:00,54.4,46.3,30.09,NNW,342,6.0,11.0,74,0.00,,---,0.00,VWS V14.01,2014-11-28 08:09:00,
2014-11-28 03:10:00,54.4,46.3,30.09,NNW,345,3.0,11.0,74,0.00,,---,0.00,VWS V14.01,2014-11-28 08:10:00,
2014-11-28 03:11:00,54.4,46.3,30.09,NNW,344,2.0,11.0,74,0.00,,---,0.00,VWS V14.01,2014-11-28 08:11:00,
2014-11-28 03:12:00,54.5,46.0,30.09,NNW,329,4.0,9.0,73,0.00,,---,0.00,VWS V14.01,2014-11-28 08:12:00,
2014-11-28 03:13:00,54.4,46.3,30.09,NNW,344,4.0,11.0,74,0.00,,---,0.00,VWS V14.01,2014-11-28 08:13:00,
2014-11-28 03:14:00,54.4,46.3,30.09,NNW,346,4.0,11.0,74,0.00,,---,0.00,VWS V14.01,2014-11-28 08:14:00,
2014-11-28 03:15:00,54.4,46.7,30.09,NNW,346,2.0,11.0,75,0.00,,---,0.00,VWS V14.01,2014-11-28 08:15:00,
2014-11-28 03:16:00,54.4,46.7,30.09,NNW,346,3.0,11.0,75,0.00,,---,0.00,VWS V14.01,2014-11-28 08:16:00,
2014-11-28 03:17:00,54.4,46.3,30.09,NNW,343,4.0,11.0,74,0.00,,---,0.00,VWS V14.01,2014-11-28 08:17:00,
2014-11-28 03:18:00,54.2,46.5,30.09,NNW,340,8.0,11.0,75,0.00,,---,0.00,VWS V14.01,2014-11-28 08:18:00,
2014-11-28 03:19:00,54.2,46.5,30.09,NNW,339,2.0,11.0,75,0.00,,---,0.00,VWS V14.01,2014-11-28 08:19:00,
2014-11-28 03:20:00,54.2,46.5,30.09,NNW,339,7.0,11.0,75,0.00,,---,0.00,VWS V14.01,2014-11-28 08:20:00,
2014-11-28 03:21:00,54.2,46.5,30.09,NNW,345,4.0,11.0,75,0.00,,---,0.00,VWS V14.01,2014-11-28 08:21:00,
2014-11-28 03:22:00,54.4,46.3,30.09,NNW,344,3.0,11.0,74,0.00,,---,0.00,VWS V14.01,2014-11-28 08:22:00,
2014-11-28 03:23:00,54.2,46.5,30.09,NNW,348,4.0,11.0,75,0.00,,---,0.00,VWS V14.01,2014-11-28 08:23:00,
2014-11-28 03:24:00,54.2,46.5,30.09,NNW,347,2.0,11.0,75,0.00,,---,0.00,VWS V14.01,2014-11-28 08:24:00,
2014-11-28 03:25:00,54.2,46.5,30.09,NNW,348,6.0,11.0,75,0.00,,---,0.00,VWS V14.01,2014-11-28 08:25:00,
2014-11-28 03:26:00,54.1,46.4,30.09,NNW,346,4.0,11.0,75,0.00,,---,0.00,VWS V14.01,2014-11-28 08:26:00,
2014-11-28 03:27:00,54.2,46.5,30.09,NNW,340,9.0,11.0,75,0.00,,---,0.00,VWS V14.01,2014-11-28 08:27:00,
2014-11-28 03:28:00,54.1,46.4,30.09,NNW,346,8.0,11.0,75,0.00,,---,0.00,VWS V14.01,2014-11-28 08:28:00,
2014-11-28 03:29:00,54.1,46.4,30.09,NNW,342,4.0,11.0,75,0.00,,---,0.00,VWS V14.01,2014-11-28 08:29:00,
2014-11-28 03:30:00,54.1,46.4,30.09,NNW,343,2.0,9.0,75,0.00,,---,0.00,VWS V14.01,2014-11-28 08:30:00,
2014-11-28 03:31:00,54.1,46.4,30.09,NNW,343,2.0,9.0,75,0.00,,---,0.00,VWS V14.01,2014-11-28 08:31:00,
2014-11-28 03:32:00,54.2,46.5,30.09,NNW,345,4.0,11.0,75,0.00,,---,0.00,VWS V14.01,2014-11-28 08:32:00,
2014-11-28 03:33:00,54.1,46.7,30.09,NNW,338,7.0,10.0,76,0.00,,---,0.00,VWS V14.01,2014-11-28 08:33:00,
2014-11-28 03:34:00,53.9,46.5,30.09,NNW,333,3.0,10.0,76,0.00,,---,0.00,VWS V14.01,2014-11-28 08:34:00,
2014-11-28 03:35:00,53.9,46.5,30.09,NNW,333,2.0,10.0,76,0.00,,---,0.00,VWS V14.01,2014-11-28 08:35:00,
2014-11-28 03:36:00,53.9,46.5,30.09,NNW,331,4.0,10.0,76,0.00,,---,0.00,VWS V14.01,2014-11-28 08:36:00,
2014-11-28 03:37:00,54.1,46.4,30.09,NNW,346,3.0,11.0,75,0.00,,---,0.00,VWS V14.01,2014-11-28 08:37:00,
2014-11-28 03:38:00,53.9,46.5,30.09,NNW,338,3.0,10.0,76,0.00,,---,0.00,VWS V14.01,2014-11-28 08:38:00,
2014-11-28 03:39:00,53.9,46.5,30.09,NNW,338,3.0,10.0,76,0.00,,---,0.00,VWS V14.01,2014-11-28 08:39:00,
2014-11-28 03:40:00,53.9,46.5,30.09,NNW,338,7.0,10.0,76,0.00,,---,0.00,VWS V14.01,2014-11-28 08:40:00,
2014-11-28 03:41:00,53.9,46.5,30.09,NNW,338,2.0,10.0,76,0.00,,---,0.00,VWS V14.01,2014-11-28 08:41:00,
2014-11-28 03:42:00,54.1,46.7,30.09,NNW,334,4.0,10.0,76,0.00,,---,0.00,VWS V14.01,2014-11-28 08:42:00,
2014-11-28 03:43:00,53.8,46.4,30.09,NNW,337,9.0,10.0,76,0.00,,---,0.00,VWS V14.01,2014-11-28 08:43:00,
2014-11-28 03:44:00,53.8,46.4,30.09,NNW,338,5.0,10.0,76,0.00,,---,0.00,VWS V14.01,2014-11-28 08:44:00,
2014-11-28 03:45:00,53.8,46.4,30.09,NNW,338,3.0,10.0,76,0.00,,---,0.00,VWS V14.01,2014-11-28 08:45:00,
2014-11-28 03:47:00,53.9,46.5,30.09,NNW,337,5.0,10.0,76,0.00,,---,0.00,VWS V14.01,2014-11-28 08:47:00,
2014-11-28 03:48:00,53.8,46.4,30.09,NNW,338,2.0,10.0,76,0.00,,---,0.00,VWS V14.01,2014-11-28 08:48:00,
2014-11-28 03:50:00,53.6,46.6,30.09,NNW,342,4.0,10.0,77,0.00,,---,0.00,VWS V14.01,2014-11-28 08:50:00,
2014-11-28 03:52:00,53.8,46.4,30.09,NNW,338,4.0,10.0,76,0.00,,---,0.00,VWS V14.01,2014-11-28 08:52:00,
2014-11-28 03:57:00,53.8,46.4,30.09,NNW,337,2.0,10.0,76,0.00,,---,0.00,VWS V14.01,2014-11-28 08:57:00,
2014-11-28 03:59:00,53.5,46.5,30.09,NNW,344,1.0,10.0,77,0.00,,---,0.00,VWS V14.01,2014-11-28 08:59:00,
2014-11-28 04:00:00,53.5,46.5,30.09,NNW,342,5.0,10.0,77,0.00,,---,0.00,VWS V14.01,2014-11-28 09:00:00,
2014-11-28 04:01:00,53.5,46.5,30.09,NNW,343,4.0,5.0,77,0.00,,---,0.00,VWS V14.01,2014-11-28 09:01:00,
2014-11-28 04:02:00,53.6,46.6,30.09,North,351,4.0,10.0,77,0.00,,---,0.00,VWS V14.01,2014-11-28 09:02:00,
2014-11-28 04:03:00,53.3,46.3,30.09,NNW,339,3.0,9.0,77,0.00,,---,0.00,VWS V14.01,2014-11-28 09:03:00,
2014-11-28 04:04:00,53.3,46.3,30.09,NNW,341,4.0,9.0,77,0.00,,---,0.00,VWS V14.01,2014-11-28 09:04:00,
2014-11-28 04:05:00,53.3,46.3,30.09,NNW,342,6.0,9.0,77,0.00,,---,0.00,VWS V14.01,2014-11-28 09:05:00,
2014-11-28 04:06:00,53.3,46.3,30.09,NNW,342,4.0,9.0,77,0.00,,---,0.00,VWS V14.01,2014-11-28 09:06:00,
2014-11-28 04:07:00,53.2,46.2,30.09,NNW,338,5.0,9.0,77,0.00,,---,0.00,VWS V14.01,2014-11-28 09:07:00,
2014-11-28 04:08:00,53.5,46.5,30.09,NNW,344,3.0,10.0,77,0.00,,---,0.00,VWS V14.01,2014-11-28 09:08:00,
2014-11-28 04:09:00,53.2,46.2,30.09,NNW,337,4.0,9.0,77,0.00,,---,0.00,VWS V14.01,2014-11-28 09:09:00,
2014-11-28 04:10:00,53.2,46.2,30.09,NNW,338,6.0,9.0,77,0.00,,---,0.00,VWS V14.01,2014-11-28 09:10:00,
2014-11-28 04:11:00,53.2,46.2,30.09,NNW,333,1.0,9.0,77,0.00,,---,0.00,VWS V14.01,2014-11-28 09:11:00,
2014-11-28 04:12:00,53.2,46.2,30.09,NW,325,4.0,9.0,77,0.00,,---,0.00,VWS V14.01,2014-11-28 09:12:00,
2014-11-28 04:13:00,53.3,46.3,30.09,NNW,341,6.0,9.0,77,0.00,,---,0.00,VWS V14.01,2014-11-28 09:13:00,
2014-11-28 04:14:00,53.2,46.2,30.09,NNW,345,5.0,9.0,77,0.00,,---,0.00,VWS V14.01,2014-11-28 09:14:00,
2014-11-28 04:15:00,53.2,46.2,30.09,NNW,344,3.0,9.0,77,0.00,,---,0.00,VWS V14.01,2014-11-28 09:15:00,
2014-11-28 04:16:00,53.2,46.2,30.09,NNW,344,3.0,9.0,77,0.00,,---,0.00,VWS V14.01,2014-11-28 09:16:00,
2014-11-28 04:17:00,53.1,46.1,30.09,NNW,344,4.0,9.0,77,0.00,,---,0.00,VWS V14.01,2014-11-28 09:17:00,
2014-11-28 04:18:00,53.2,46.5,30.09,NNW,338,4.0,9.0,78,0.00,,---,0.00,VWS V14.01,2014-11-28 09:18:00,
2014-11-28 04:19:00,53.1,46.4,30.09,NNW,344,8.0,9.0,78,0.00,,---,0.00,VWS V14.01,2014-11-28 09:19:00,
2014-11-28 04:20:00,53.1,46.1,30.09,NNW,343,1.0,9.0,77,0.00,,---,0.00,VWS V14.01,2014-11-28 09:20:00,
2014-11-28 04:21:00,53.1,46.4,30.09,NNW,343,2.0,9.0,78,0.00,,---,0.00,VWS V14.01,2014-11-28 09:21:00,
2014-11-28 04:22:00,53.1,46.4,30.09,NNW,344,4.0,9.0,78,0.00,,---,0.00,VWS V14.01,2014-11-28 09:22:00,
2014-11-28 04:23:00,53.2,46.2,30.09,NNW,346,8.0,9.0,77,0.00,,---,0.00,VWS V14.01,2014-11-28 09:23:00,
2014-11-28 04:24:00,53.1,46.4,30.09,NNW,338,11.0,11.0,78,0.00,,---,0.00,VWS V14.01,2014-11-28 09:24:00,
2014-11-28 04:25:00,52.9,46.2,30.09,NNW,337,2.0,11.0,78,0.00,,---,0.00,VWS V14.01,2014-11-28 09:25:00,
2014-11-28 04:26:00,52.9,46.2,30.09,NNW,340,9.0,11.0,78,0.00,,---,0.00,VWS V14.01,2014-11-28 09:26:00,
2014-11-28 04:27:00,52.9,46.2,30.09,NNW,340,4.0,11.0,78,0.00,,---,0.00,VWS V14.01,2014-11-28 09:27:00,
2014-11-28 04:28:00,53.1,46.1,30.09,NNW,344,6.0,9.0,77,0.00,,---,0.00,VWS V14.01,2014-11-28 09:28:00,
2014-11-28 04:29:00,52.9,46.2,30.09,NNW,340,5.0,11.0,78,0.00,,---,0.00,VWS V14.01,2014-11-28 09:29:00,
2014-11-28 04:30:00,52.9,46.2,30.09,NNW,336,4.0,5.0,78,0.00,,---,0.00,VWS V14.01,2014-11-28 09:30:00,
2014-11-28 04:31:00,52.9,46.2,30.09,NNW,339,6.0,6.0,78,0.00,,---,0.00,VWS V14.01,2014-11-28 09:31:00,
2014-11-28 04:32:00,52.9,46.2,30.09,NNW,339,3.0,6.0,78,0.00,,---,0.00,VWS V14.01,2014-11-28 09:32:00,
2014-11-28 04:33:00,53.1,46.4,30.09,NNW,345,4.0,9.0,78,0.00,,---,0.00,VWS V14.01,2014-11-28 09:33:00,
2014-11-28 04:34:00,52.8,46.1,30.09,NNW,340,5.0,6.0,78,0.00,,---,0.00,VWS V14.01,2014-11-28 09:34:00,
2014-11-28 04:35:00,52.8,46.1,30.09,NNW,348,4.0,6.0,78,0.00,,---,0.00,VWS V14.01,2014-11-28 09:35:00,
2014-11-28 04:36:00,52.8,46.1,30.09,NNW,347,5.0,6.0,78,0.00,,---,0.00,VWS V14.01,2014-11-28 09:36:00,
2014-11-28 04:37:00,52.8,46.1,30.09,NNW,327,10.0,10.0,78,0.00,,---,0.00,VWS V14.01,2014-11-28 09:37:00,
2014-11-28 04:38:00,52.9,46.2,30.09,NNW,340,4.0,11.0,78,0.00,,---,0.00,VWS V14.01,2014-11-28 09:38:00,
2014-11-28 04:39:00,52.8,46.1,30.09,NNW,329,5.0,10.0,78,0.00,,---,0.00,VWS V14.01,2014-11-28 09:39:00,
2014-11-28 04:40:00,52.8,46.1,30.09,NNW,330,4.0,10.0,78,0.00,,---,0.00,VWS V14.01,2014-11-28 09:40:00,
2014-11-28 04:41:00,52.8,46.1,30.09,NNW,338,7.0,10.0,78,0.00,,---,0.00,VWS V14.01,2014-11-28 09:41:00,
2014-11-28 04:43:00,52.8,46.1,30.09,NNW,340,6.0,6.0,78,0.00,,---,0.00,VWS V14.01,2014-11-28 09:43:00,
2014-11-28 04:47:00,52.6,46.3,30.10,North,351,2.0,10.0,79,0.00,,---,0.00,VWS V14.01,2014-11-28 09:47:00,
2014-11-28 04:48:00,52.8,46.1,30.09,NNW,328,3.0,10.0,78,0.00,,---,0.00,VWS V14.01,2014-11-28 09:48:00,
2014-11-28 04:52:00,52.6,46.3,30.10,NNW,348,3.0,10.0,79,0.00,,---,0.00,VWS V14.01,2014-11-28 09:52:00,
2014-11-28 04:53:00,52.6,46.3,30.10,NNW,338,3.0,10.0,79,0.00,,---,0.00,VWS V14.01,2014-11-28 09:53:00,
2014-11-28 04:54:00,52.6,46.3,30.10,NNW,344,4.0,10.0,79,0.00,,---,0.00,VWS V14.01,2014-11-28 09:54:00,
2014-11-28 04:55:00,52.6,46.3,30.10,NNW,343,2.0,10.0,79,0.00,,---,0.00,VWS V14.01,2014-11-28 09:55:00,
2014-11-28 04:56:00,52.6,46.3,30.10,NNW,343,4.0,10.0,79,0.00,,---,0.00,VWS V14.01,2014-11-28 09:56:00,
2014-11-28 04:57:00,52.5,46.2,30.10,NNW,346,5.0,10.0,79,0.00,,---,0.00,VWS V14.01,2014-11-28 09:57:00,
2014-11-28 04:58:00,52.6,46.3,30.10,North,349,3.0,10.0,79,0.00,,---,0.00,VWS V14.01,2014-11-28 09:58:00,
2014-11-28 04:59:00,52.5,46.2,30.10,NNW,338,8.0,12.0,79,0.00,,---,0.00,VWS V14.01,2014-11-28 09:59:00,
2014-11-28 05:00:00,52.5,46.2,30.10,NNW,340,6.0,6.0,79,0.00,,---,0.00,VWS V14.01,2014-11-28 10:00:00,
2014-11-28 05:01:00,52.5,46.2,30.10,NNW,341,6.0,6.0,79,0.00,,---,0.00,VWS V14.01,2014-11-28 10:01:00,
2014-11-28 05:02:00,52.5,46.2,30.10,NNW,340,3.0,6.0,79,0.00,,---,0.00,VWS V14.01,2014-11-28 10:02:00,
2014-11-28 05:03:00,52.5,46.5,30.10,NNW,340,2.0,6.0,80,0.00,,---,0.00,VWS V14.01,2014-11-28 10:03:00,
2014-11-28 05:04:00,52.6,46.3,30.10,NNW,343,1.0,10.0,79,0.00,,---,0.00,VWS V14.01,2014-11-28 10:04:00,
2014-11-28 05:05:00,52.5,46.5,30.10,NNW,341,3.0,7.0,80,0.00,,---,0.00,VWS V14.01,2014-11-28 10:05:00,
2014-11-28 05:06:00,52.5,46.5,30.10,NNW,341,3.0,7.0,80,0.00,,---,0.00,VWS V14.01,2014-11-28 10:06:00,
2014-11-28 05:07:00,52.3,46.3,30.10,NNW,341,2.0,7.0,80,0.00,,---,0.00,VWS V14.01,2014-11-28 10:07:00,
2014-11-28 05:08:00,52.3,46.3,30.10,NNW,339,6.0,7.0,80,0.00,,---,0.00,VWS V14.01,2014-11-28 10:08:00,
2014-11-28 05:09:00,52.5,46.2,30.10,NNW,339,7.0,12.0,79,0.00,,---,0.00,VWS V14.01,2014-11-28 10:09:00,
2014-11-28 05:10:00,52.3,46.3,30.10,NNW,347,3.0,7.0,80,0.00,,---,0.00,VWS V14.01,2014-11-28 10:10:00,
2014-11-28 05:11:00,52.3,46.3,30.10,NNW,348,6.0,7.0,80,0.00,,---,0.00,VWS V14.01,2014-11-28 10:11:00,
2014-11-28 05:12:00,52.3,46.3,30.10,NNW,346,4.0,7.0,80,0.00,,---,0.00,VWS V14.01,2014-11-28 10:12:00,
2014-11-28 05:13:00,52.3,46.3,30.10,NNW,346,3.0,7.0,80,0.00,,---,0.00,VWS V14.01,2014-11-28 10:13:00,
2014-11-28 05:14:00,52.5,46.5,30.10,NNW,341,7.0,7.0,80,0.00,,---,0.00,VWS V14.01,2014-11-28 10:14:00,
2014-11-28 05:15:00,52.3,46.7,30.10,NNW,346,5.0,7.0,81,0.00,,---,0.00,VWS V14.01,2014-11-28 10:15:00,
2014-11-28 05:16:00,52.3,46.7,30.10,NNW,345,3.0,7.0,81,0.00,,---,0.00,VWS V14.01,2014-11-28 10:16:00,
2014-11-28 05:17:00,52.3,46.7,30.10,NNW,342,9.0,9.0,81,0.00,,---,0.00,VWS V14.01,2014-11-28 10:17:00,
2014-11-28 05:18:00,52.3,46.7,30.10,NNW,338,3.0,9.0,81,0.00,,---,0.00,VWS V14.01,2014-11-28 10:18:00,
2014-11-28 05:19:00,52.3,46.3,30.10,NNW,347,7.0,7.0,80,0.00,,---,0.00,VWS V14.01,2014-11-28 10:19:00,
2014-11-28 05:20:00,52.3,46.7,30.10,NNW,340,4.0,9.0,81,0.00,,---,0.00,VWS V14.01,2014-11-28 10:20:00,
2014-11-28 05:21:00,52.3,46.7,30.10,NNW,340,2.0,9.0,81,0.00,,---,0.00,VWS V14.01,2014-11-28 10:21:00,
2014-11-28 05:22:00,52.2,46.5,30.10,NW,311,9.0,9.0,81,0.00,,---,0.00,VWS V14.01,2014-11-28 10:22:00,
2014-11-28 05:23:00,52.2,46.5,30.10,NNW,337,3.0,9.0,81,0.00,,---,0.00,VWS V14.01,2014-11-28 10:23:00,
2014-11-28 05:24:00,52.3,46.7,30.10,NNW,346,5.0,7.0,81,0.00,,---,0.00,VWS V14.01,2014-11-28 10:24:00,
2014-11-28 05:25:00,52.2,46.5,30.10,NNW,337,3.0,9.0,81,0.00,,---,0.00,VWS V14.01,2014-11-28 10:25:00,
2014-11-28 05:26:00,52.2,46.5,30.10,NNW,337,4.0,9.0,81,0.00,,---,0.00,VWS V14.01,2014-11-28 10:26:00,
2014-11-28 05:27:00,52.2,46.5,30.10,NNW,337,4.0,9.0,81,0.00,,---,0.00,VWS V14.01,2014-11-28 10:27:00,
2014-11-28 05:28:00,52.2,46.5,30.10,NNW,337,3.0,9.0,81,0.00,,---,0.00,VWS V14.01,2014-11-28 10:28:00,
2014-11-28 05:29:00,52.3,46.7,30.10,NNW,340,2.0,9.0,81,0.00,,---,0.00,VWS V14.01,2014-11-28 10:29:00,
2014-11-28 05:30:00,52.2,46.5,30.11,NNW,337,5.0,5.0,81,0.00,,---,0.00,VWS V14.01,2014-11-28 10:30:00,
2014-11-28 05:31:00,52.2,46.5,30.11,NNW,337,3.0,5.0,81,0.00,,---,0.00,VWS V14.01,2014-11-28 10:31:00,
2014-11-28 05:32:00,52.2,46.5,30.11,NNW,337,4.0,5.0,81,0.00,,---,0.00,VWS V14.01,2014-11-28 10:32:00,
2014-11-28 05:33:00,52.2,46.5,30.11,NNW,337,5.0,5.0,81,0.00,,---,0.00,VWS V14.01,2014-11-28 10:33:00,
2014-11-28 05:34:00,52.2,46.5,30.10,NNW,337,1.0,9.0,81,0.00,,---,0.00,VWS V14.01,2014-11-28 10:34:00,
2014-11-28 05:35:00,52.0,46.4,30.11,NNW,338,3.0,5.0,81,0.00,,---,0.00,VWS V14.01,2014-11-28 10:35:00,
2014-11-28 05:36:00,52.0,46.4,30.11,North,9,3.0,11.0,81,0.00,,---,0.00,VWS V14.01,2014-11-28 10:36:00,
2014-11-28 05:38:00,52.0,46.4,30.11,North,355,5.0,11.0,81,0.00,,---,0.00,VWS V14.01,2014-11-28 10:38:00,
2014-11-28 05:39:00,52.2,46.5,30.11,NNW,337,4.0,9.0,81,0.00,,---,0.00,VWS V14.01,2014-11-28 10:39:00,
2014-11-28 05:44:00,52.0,46.4,30.11,NNW,338,3.0,5.0,81,0.00,,---,0.00,VWS V14.01,2014-11-28 10:44:00,
2014-11-28 05:48:00,51.9,46.3,30.11,NNW,338,4.0,11.0,81,0.00,,---,0.00,VWS V14.01,2014-11-28 10:48:00,
2014-11-28 05:49:00,52.0,46.4,30.11,NNW,340,6.0,11.0,81,0.00,,---,0.00,VWS V14.01,2014-11-28 10:49:00,
2014-11-28 05:50:00,51.9,46.3,30.11,NNW,337,3.0,11.0,81,0.00,,---,0.00,VWS V14.01,2014-11-28 10:50:00,
2014-11-28 05:51:00,51.9,46.3,30.11,NNW,343,4.0,11.0,81,0.00,,---,0.00,VWS V14.01,2014-11-28 10:51:00,
2014-11-28 05:52:00,51.9,46.3,30.11,NNW,343,4.0,11.0,81,0.00,,---,0.00,VWS V14.01,2014-11-28 10:52:00,
2014-11-28 05:53:00,51.9,46.3,30.11,NNW,342,3.0,11.0,81,0.00,,---,0.00,VWS V14.01,2014-11-28 10:53:00,
2014-11-28 05:54:00,52.0,46.4,30.11,NNW,344,5.0,11.0,81,0.00,,---,0.00,VWS V14.01,2014-11-28 10:54:00,
2014-11-28 05:55:00,51.9,46.3,30.11,NNW,336,4.0,11.0,81,0.00,,---,0.00,VWS V14.01,2014-11-28 10:55:00,
2014-11-28 05:56:00,51.9,46.3,30.11,NNW,336,3.0,11.0,81,0.00,,---,0.00,VWS V14.01,2014-11-28 10:56:00,
2014-11-28 05:57:00,51.9,46.3,30.11,NNW,340,6.0,11.0,81,0.00,,---,0.00,VWS V14.01,2014-11-28 10:57:00,
2014-11-28 05:58:00,51.9,46.3,30.11,NNW,340,4.0,11.0,81,0.00,,---,0.00,VWS V14.01,2014-11-28 10:58:00,
2014-11-28 05:59:00,51.9,46.3,30.11,NNW,340,4.0,11.0,81,0.00,,---,0.00,VWS V14.01,2014-11-28 10:59:00,
2014-11-28 06:00:00,51.9,46.3,30.11,NNW,337,5.0,11.0,81,0.00,,---,0.00,VWS V14.01,2014-11-28 11:00:00,
2014-11-28 06:01:00,51.7,46.1,30.11,NNW,338,2.0,4.0,81,0.00,,---,0.00,VWS V14.01,2014-11-28 11:01:00,
2014-11-28 06:02:00,51.7,46.1,30.11,NNW,342,5.0,6.0,81,0.00,,---,0.00,VWS V14.01,2014-11-28 11:02:00,
2014-11-28 06:03:00,51.7,46.1,30.11,NNW,346,8.0,8.0,81,0.00,,---,0.00,VWS V14.01,2014-11-28 11:03:00,
2014-11-28 06:04:00,51.7,46.1,30.11,NNW,344,10.0,10.0,81,0.00,,---,0.00,VWS V14.01,2014-11-28 11:04:00,
2014-11-28 06:05:00,51.9,46.3,30.11,NNW,336,3.0,11.0,81,0.00,,---,0.00,VWS V14.01,2014-11-28 11:05:00,
2014-11-28 06:06:00,51.7,46.1,30.11,NNW,341,5.0,10.0,81,0.00,,---,0.00,VWS V14.01,2014-11-28 11:06:00,
2014-11-28 06:07:00,51.7,46.1,30.11,NNW,346,2.0,10.0,81,0.00,,---,0.00,VWS V14.01,2014-11-28 11:07:00,
2014-11-28 06:08:00,51.7,46.1,30.11,NNW,346,4.0,10.0,81,0.00,,---,0.00,VWS V14.01,2014-11-28 11:08:00,
2014-11-28 06:09:00,51.7,46.1,30.11,NNW,346,3.0,10.0,81,0.00,,---,0.00,VWS V14.01,2014-11-28 11:09:00,
2014-11-28 06:10:00,51.7,46.1,30.11,NNW,339,3.0,4.0,81,0.00,,---,0.00,VWS V14.01,2014-11-28 11:10:00,
2014-11-28 06:11:00,51.6,46.0,30.11,NNW,347,4.0,10.0,81,0.00,,---,0.00,VWS V14.01,2014-11-28 11:11:00,
2014-11-28 06:12:00,51.6,46.0,30.11,NNW,338,5.0,10.0,81,0.00,,---,0.00,VWS V14.01,2014-11-28 11:12:00,
2014-11-28 06:13:00,51.6,46.0,30.11,NNW,341,5.0,10.0,81,0.00,,---,0.00,VWS V14.01,2014-11-28 11:13:00,
2014-11-28 06:14:00,51.6,46.0,30.12,NNW,341,5.0,10.0,81,0.00,,---,0.00,VWS V14.01,2014-11-28 11:14:00,
2014-11-28 06:15:00,51.7,46.1,30.11,NNW,341,4.0,10.0,81,0.00,,---,0.00,VWS V14.01,2014-11-28 11:15:00,
2014-11-28 06:16:00,51.6,46.0,30.12,NNW,341,1.0,10.0,81,0.00,,---,0.00,VWS V14.01,2014-11-28 11:16:00,
2014-11-28 06:17:00,51.6,46.0,30.12,NNW,341,4.0,10.0,81,0.00,,---,0.00,VWS V14.01,2014-11-28 11:17:00,
2014-11-28 06:20:00,51.6,46.0,30.11,NNW,346,5.0,10.0,81,0.00,,---,0.00,VWS V14.01,2014-11-28 11:20:00,
2014-11-28 06:25:00,51.6,46.0,30.12,NNW,341,4.0,10.0,81,0.00,,---,0.00,VWS V14.01,2014-11-28 11:25:00,